Weather at Crippen Creek Farm Airport

Public forecast

Using degrees Fahrenheit for public forecast. Weather courtesy of forecast.io.

Closest aviation weather report (METAR) to Crippen Creek Farm Airport

Closest report is Accomack County Airport, 11.4 nm (21.1 km) SW. Retrieved 2021/06/13 16:15 UTC (9 minutes ago):

KMFV 131615Z AUTO 11004KT 10SM CLR 24/16 A2994 RMK AO2 T02410160

Closest aviation forecast (TAF) to Crippen Creek Farm Airport

Closest forecast is Salisbury Ocean City Wicomico Regional Airport, 34.8 nm (64.5 km) N. Retrieved 2021/06/13 12:22 UTC (4 hours ago):

TAF KSBY 131120Z 1312/1412 06003KT P6SM SCT004 SCT015 TEMPO 1312/1314 3SM BR OVC004 FM131500 13005KT P6SM SCT040 FM131900 14007KT P6SM SCT050 FM140400 14002KT 4SM BR BKN100 FM140600 15002KT 2SM BR BKN008 FM141000 15002KT P6SM BKN020